Time;durP1;ratioP1;P1;durP2;ratioP2;P2;SDS_P1;SDS_P2;PMS_P1;PMS_P2;Temp;Humidity;BMP_temperature;BMP_pressure;BME280_temperature;BME280_humidity;BME280_pressure;Samples;Min_cycle;Max_cycle;Signal;HPM_P1;HPM_P2
2022/09/07 00:00:48;;;;;;;0.00;0.00;;;16.90;99.90;;;;;;5060000;28;20570;-71
2022/09/07 00:03:17;;;;;;;0.00;0.00;;;16.90;99.90;;;;;;5060646;28;20532;-71
2022/09/07 00:05:47;;;;;;;0.00;0.00;;;17.00;99.90;;;;;;5061564;28;20444;-72
2022/09/07 00:08:16;;;;;;;0.00;0.00;;;17.00;99.90;;;;;;5061403;28;20531;-71
2022/09/07 00:10:53;;;;;;;0.00;0.00;;;17.00;99.90;;;;;;5062858;28;20783;-70
2022/09/07 00:13:22;;;;;;;0.00;0.00;;;17.00;99.90;;;;;;5050004;28;20451;-71
2022/09/07 00:15:51;;;;;;;0.00;0.00;;;17.00;99.90;;;;;;5042094;28;20436;-71
2022/09/07 00:18:19;;;;;;;0.00;0.00;;;17.00;99.90;;;;;;5041702;28;21154;-70
2022/09/07 00:20:47;;;;;;;0.00;0.00;;;16.90;99.90;;;;;;5040903;28;20958;-70
2022/09/07 00:23:15;;;;;;;0.00;0.00;;;16.90;99.90;;;;;;5041902;28;20559;-71
2022/09/07 00:25:43;;;;;;;0.00;0.00;;;16.90;99.90;;;;;;5041412;28;20446;-71
2022/09/07 00:28:12;;;;;;;0.00;0.00;;;16.90;99.90;;;;;;5041481;28;21131;-71
2022/09/07 00:30:42;;;;;;;0.00;0.00;;;16.80;99.90;;;;;;5040859;28;20472;-71
2022/09/07 00:33:10;;;;;;;0.00;0.00;;;16.80;99.90;;;;;;5040895;28;20446;-71
2022/09/07 00:35:41;;;;;;;0.00;0.00;;;16.80;99.90;;;;;;5040970;28;20440;-71
2022/09/07 00:38:09;;;;;;;0.00;0.00;;;16.80;99.90;;;;;;5040456;28;21166;-71
2022/09/07 00:40:37;;;;;;;0.00;0.00;;;16.80;99.90;;;;;;5040452;28;20484;-71
2022/09/07 00:43:06;;;;;;;0.00;0.00;;;16.80;99.90;;;;;;5040570;28;20436;-72
2022/09/07 00:45:35;;;;;;;0.00;0.00;;;16.80;99.90;;;;;;5056528;28;20526;-72
2022/09/07 00:48:06;;;;;;;0.00;0.00;;;16.70;99.90;;;;;;5060800;28;20443;-71
2022/09/07 00:50:39;;;;;;;0.00;0.00;;;16.70;99.90;;;;;;5060686;28;20455;-69
2022/09/07 00:53:14;;;;;;;0.00;0.00;;;16.70;99.90;;;;;;5060373;28;20447;-71
2022/09/07 00:55:44;;;;;;;0.00;0.00;;;16.70;99.90;;;;;;5060727;28;20434;-75
2022/09/07 00:58:13;;;;;;;0.00;0.00;;;16.70;99.90;;;;;;5060436;28;20505;-71
2022/09/07 01:00:45;;;;;;;0.00;0.00;;;16.70;99.90;;;;;;5063092;28;20479;-69
2022/09/07 01:03:15;;;;;;;0.00;0.00;;;16.70;99.90;;;;;;5061057;28;21026;-69
2022/09/07 01:05:46;;;;;;;0.00;0.00;;;16.70;99.90;;;;;;5061252;28;21139;-69
2022/09/07 01:08:14;;;;;;;0.00;0.00;;;16.70;99.90;;;;;;5061020;28;20443;-70
2022/09/07 01:10:42;;;;;;;0.00;0.00;;;16.80;99.90;;;;;;5060858;28;20455;-70
2022/09/07 01:13:10;;;;;;;0.00;0.00;;;16.80;99.90;;;;;;5060280;28;20455;-70
2022/09/07 01:15:51;;;;;;;0.00;0.00;;;16.80;99.90;;;;;;5060122;28;20523;-70
2022/09/07 01:18:30;;;;;;;0.00;0.00;;;16.70;99.90;;;;;;5059821;28;20657;-70
2022/09/07 01:21:30;;;;;;;0.00;0.00;;;16.70;99.90;;;;;;5059351;28;20658;-70
2022/09/07 01:24:23;;;;;;;0.00;0.00;;;16.80;99.90;;;;;;5046292;28;20440;-70
2022/09/07 01:27:26;;;;;;;0.00;0.00;;;16.70;99.90;;;;;;5060007;28;20443;-70
2022/09/07 01:30:02;;;;;;;0.00;0.00;;;16.70;99.90;;;;;;5064363;28;20482;-70
2022/09/07 01:32:42;;;;;;;0.00;0.00;;;16.80;99.90;;;;;;5062057;28;20530;-71
2022/09/07 01:35:15;;;;;;;0.00;0.00;;;16.70;99.90;;;;;;5059542;28;20518;-70
2022/09/07 01:37:50;;;;;;;0.00;0.00;;;16.70;99.90;;;;;;5059830;28;20437;-70
2022/09/07 01:40:31;;;;;;;0.00;0.00;;;16.80;99.90;;;;;;5059174;28;20512;-71
2022/09/07 01:43:04;;;;;;;0.00;0.00;;;16.80;99.90;;;;;;5059839;28;20529;-71
2022/09/07 01:45:35;;;;;;;0.00;0.00;;;16.90;99.90;;;;;;5059554;28;20443;-70
2022/09/07 01:48:06;;;;;;;0.00;0.00;;;16.90;99.90;;;;;;5059331;28;20447;-71
2022/09/07 01:50:43;;;;;;;0.00;0.00;;;16.90;99.90;;;;;;5059149;28;20463;-69
2022/09/07 01:53:15;;;;;;;0.00;0.00;;;16.90;99.90;;;;;;5060361;28;20526;-70
2022/09/07 01:55:46;;;;;;;0.00;0.00;;;16.90;99.90;;;;;;5056658;28;20444;-70
2022/09/07 01:58:19;;;;;;;0.00;0.00;;;17.00;99.90;;;;;;5044546;28;20446;-70
2022/09/07 02:00:53;;;;;;;0.00;0.00;;;17.00;99.90;;;;;;5042344;28;20481;-69
2022/09/07 02:03:27;;;;;;;0.00;0.00;;;17.00;99.90;;;;;;5039525;28;20436;-69
2022/09/07 02:06:00;;;;;;;0.00;0.00;;;17.00;99.90;;;;;;5039603;28;20469;-70
2022/09/07 02:08:32;;;;;;;0.00;0.00;;;17.10;99.90;;;;;;5039394;28;20475;-70
2022/09/07 02:11:04;;;;;;;0.00;0.00;;;17.10;99.90;;;;;;5039225;28;20650;-70
2022/09/07 02:13:36;;;;;;;0.00;0.00;;;17.10;99.90;;;;;;5039181;28;20429;-71
2022/09/07 02:21:21;;;;;;;0.00;0.00;;;17.10;99.90;;;;;;5062479;28;20482;-68
2022/09/07 02:23:53;;;;;;;0.00;0.00;;;17.20;99.90;;;;;;5059037;28;20419;-67
2022/09/07 02:26:23;;;;;;;0.00;0.00;;;17.20;99.90;;;;;;5058820;28;20435;-68
2022/09/07 02:28:52;;;;;;;0.00;0.00;;;17.20;99.90;;;;;;5054042;28;20469;-67
2022/09/07 02:31:20;;;;;;;0.00;0.00;;;17.20;99.90;;;;;;5038733;28;20619;-68
2022/09/07 02:33:48;;;;;;;0.00;0.00;;;17.20;99.90;;;;;;5038711;28;20499;-68
2022/09/07 02:36:20;;;;;;;0.00;0.00;;;17.20;99.90;;;;;;5039034;28;20440;-68
2022/09/07 02:38:47;;;;;;;0.00;0.00;;;17.20;99.90;;;;;;5033327;28;20852;-68
2022/09/07 02:41:33;;;;;;;0.00;0.00;;;17.20;99.90;;;;;;5018990;28;20473;-68
2022/09/07 02:44:06;;;;;;;0.00;0.00;;;17.20;99.90;;;;;;5018946;28;20437;-70
2022/09/07 02:46:45;;;;;;;0.00;0.00;;;17.20;99.90;;;;;;5018816;28;20439;-67
2022/09/07 02:49:30;;;;;;;0.00;0.00;;;17.10;99.90;;;;;;5018483;28;21035;-69
2022/09/07 02:52:07;;;;;;;0.00;0.00;;;17.10;99.90;;;;;;5019337;28;20462;-68
2022/09/07 02:54:45;;;;;;;0.00;0.00;;;17.10;99.90;;;;;;5018565;28;20445;-69
2022/09/07 02:57:30;;;;;;;0.00;0.00;;;17.10;99.90;;;;;;5018315;28;20948;-69
2022/09/07 03:00:07;;;;;;;0.00;0.00;;;17.10;99.90;;;;;;5017997;28;20643;-69
2022/09/07 03:02:43;;;;;;;0.00;0.00;;;17.10;99.90;;;;;;5018277;28;20766;-69
2022/09/07 03:05:19;;;;;;;0.00;0.00;;;17.00;99.90;;;;;;5018212;28;20441;-70
2022/09/07 03:07:52;;;;;;;0.00;0.00;;;17.00;99.90;;;;;;5018345;28;20425;-69
2022/09/07 03:10:21;;;;;;;0.00;0.00;;;17.00;99.90;;;;;;5018540;28;20664;-69
2022/09/07 03:12:50;;;;;;;0.00;0.00;;;17.00;99.90;;;;;;5018344;28;20610;-71
2022/09/07 03:15:22;;;;;;;0.00;0.00;;;17.00;99.90;;;;;;5037831;28;20457;-68
2022/09/07 03:17:50;;;;;;;0.00;0.00;;;17.00;99.90;;;;;;5038157;28;20897;-68
2022/09/07 03:20:19;;;;;;;0.00;0.00;;;17.00;99.90;;;;;;5038095;28;20464;-68
2022/09/07 03:22:49;;;;;;;0.00;0.00;;;16.90;99.90;;;;;;5037953;28;21042;-68
2022/09/07 03:25:17;;;;;;;0.00;0.00;;;16.90;99.90;;;;;;5038129;28;20924;-68
2022/09/07 03:27:45;;;;;;;0.00;0.00;;;17.00;99.90;;;;;;5038534;28;20440;-68
2022/09/07 03:30:14;;;;;;;0.00;0.00;;;16.90;99.90;;;;;;5038140;28;20976;-68
2022/09/07 03:32:43;;;;;;;0.00;0.00;;;16.90;99.90;;;;;;5038111;28;20721;-68
2022/09/07 03:35:12;;;;;;;0.00;0.00;;;16.90;99.90;;;;;;5038780;28;20808;-69
2022/09/07 03:37:41;;;;;;;0.00;0.00;;;16.90;99.90;;;;;;5042740;28;20448;-69
2022/09/07 03:40:12;;;;;;;0.00;0.00;;;16.90;99.90;;;;;;5041736;28;21012;-68
2022/09/07 03:42:41;;;;;;;0.00;0.00;;;16.90;99.90;;;;;;5041957;28;21009;-69
2022/09/07 03:45:10;;;;;;;0.00;0.00;;;16.90;99.90;;;;;;5041886;28;20535;-68
2022/09/07 03:47:38;;;;;;;0.00;0.00;;;16.90;99.90;;;;;;5041496;28;20448;-70
2022/09/07 03:50:08;;;;;;;0.00;0.00;;;16.80;99.90;;;;;;5041421;28;20467;-70
2022/09/07 03:52:37;;;;;;;0.00;0.00;;;16.80;99.90;;;;;;5042001;28;20434;-70
2022/09/07 03:55:05;;;;;;;0.00;0.00;;;16.80;99.90;;;;;;5041155;28;20447;-71
2022/09/07 03:57:33;;;;;;;0.00;0.00;;;16.90;99.90;;;;;;5041164;28;20456;-69
2022/09/07 04:00:02;;;;;;;0.00;0.00;;;16.80;99.90;;;;;;5041271;28;20763;-68
2022/09/07 04:02:30;;;;;;;0.00;0.00;;;16.80;99.90;;;;;;5041431;28;20751;-71
2022/09/07 04:04:57;;;;;;;0.00;0.00;;;16.80;99.90;;;;;;5041452;28;20453;-72
2022/09/07 04:07:26;;;;;;;0.00;0.00;;;16.80;99.90;;;;;;5039242;28;20452;-67
2022/09/07 04:09:54;;;;;;;0.00;0.00;;;16.80;99.90;;;;;;5026920;28;20469;-67
2022/09/07 04:12:22;;;;;;;0.00;0.00;;;16.80;99.90;;;;;;5021241;28;20447;-73
2022/09/07 04:14:50;;;;;;;0.00;0.00;;;16.90;99.90;;;;;;5035020;28;20448;-71
2022/09/07 04:17:18;;;;;;;0.00;0.00;;;16.90;99.90;;;;;;5043679;28;20930;-71
2022/09/07 04:19:45;;;;;;;0.00;0.00;;;16.80;99.90;;;;;;5023927;28;20894;-71
2022/09/07 04:22:13;;;;;;;0.00;0.00;;;16.90;99.90;;;;;;5021619;28;20512;-71
2022/09/07 04:24:45;;;;;;;0.00;0.00;;;16.90;99.90;;;;;;5024046;28;20454;-71
2022/09/07 04:27:13;;;;;;;0.00;0.00;;;16.90;99.90;;;;;;5027360;28;20473;-71
2022/09/07 04:29:41;;;;;;;0.00;0.00;;;16.90;99.90;;;;;;5041178;28;20472;-72
2022/09/07 04:32:08;;;;;;;0.00;0.00;;;17.00;99.90;;;;;;5041009;28;20521;-72
2022/09/07 04:34:42;;;;;;;0.00;0.00;;;16.90;99.90;;;;;;5034488;28;20522;-72
2022/09/07 04:37:11;;;;;;;0.00;0.00;;;17.00;99.90;;;;;;5040912;28;20442;-72
2022/09/07 04:39:39;;;;;;;0.00;0.00;;;17.00;99.90;;;;;;5042320;28;20492;-72
2022/09/07 04:42:08;;;;;;;0.00;0.00;;;17.00;99.90;;;;;;5047601;28;20511;-72
2022/09/07 04:44:36;;;;;;;0.00;0.00;;;17.00;99.90;;;;;;5042357;28;20444;-72
2022/09/07 04:47:04;;;;;;;0.00;0.00;;;17.00;99.90;;;;;;5040990;28;20513;-72
2022/09/07 04:49:31;;;;;;;0.00;0.00;;;17.00;99.90;;;;;;5041339;28;20500;-72
2022/09/07 04:51:59;;;;;;;0.00;0.00;;;17.00;99.90;;;;;;5041079;28;21176;-72
2022/09/07 04:54:27;;;;;;;0.00;0.00;;;17.00;99.90;;;;;;5040805;28;20454;-72
2022/09/07 04:56:55;;;;;;;0.00;0.00;;;17.10;99.90;;;;;;5041556;28;20814;-72
2022/09/07 04:59:24;;;;;;;0.00;0.00;;;17.10;99.90;;;;;;5042965;28;20494;-71
2022/09/07 05:01:52;;;;;;;0.00;0.00;;;17.10;99.90;;;;;;5046121;28;20445;-72
2022/09/07 05:04:20;;;;;;;0.00;0.00;;;17.10;99.90;;;;;;5048314;28;20850;-70
2022/09/07 05:06:48;;;;;;;0.00;0.00;;;17.00;99.90;;;;;;5037520;28;20714;-71
2022/09/07 05:09:15;;;;;;;0.00;0.00;;;17.00;99.90;;;;;;5032900;28;20549;-68
2022/09/07 05:11:43;;;;;;;0.00;0.00;;;16.90;99.90;;;;;;5029406;28;20449;-67
2022/09/07 05:14:11;;;;;;;0.00;0.00;;;16.90;99.90;;;;;;5026873;28;20660;-68
2022/09/07 05:16:40;;;;;;;0.00;0.00;;;16.90;99.90;;;;;;5024194;28;20445;-77
2022/09/07 05:19:13;;;;;;;0.00;0.00;;;16.90;99.90;;;;;;5020227;28;20469;-77
2022/09/07 05:21:40;;;;;;;0.00;0.00;;;17.00;99.90;;;;;;5019502;28;20828;-72
2022/09/07 05:24:09;;;;;;;0.00;0.00;;;17.10;99.90;;;;;;5019944;28;20484;-75
2022/09/07 05:26:39;;;;;;;0.00;0.00;;;17.20;99.90;;;;;;5020627;28;20817;-74
2022/09/07 05:29:07;;;;;;;0.00;0.00;;;17.30;99.90;;;;;;5019434;28;20466;-74
2022/09/07 05:31:57;;;;;;;0.00;0.00;;;17.30;99.90;;;;;;5022701;28;20823;-74
2022/09/07 05:34:25;;;;;;;0.00;0.00;;;17.40;99.90;;;;;;5022181;28;20436;-73
2022/09/07 05:36:58;;;;;;;0.00;0.00;;;17.50;99.90;;;;;;5042274;28;20467;-74
2022/09/07 05:39:26;;;;;;;0.00;0.00;;;17.60;99.90;;;;;;5031328;28;20465;-65
2022/09/07 05:41:54;;;;;;;0.00;0.00;;;17.60;99.90;;;;;;5019110;28;20438;-69
2022/09/07 05:44:22;;;;;;;0.00;0.00;;;17.60;99.90;;;;;;5018852;28;21031;-69
2022/09/07 05:47:11;;;;;;;0.00;0.00;;;17.70;99.90;;;;;;5031099;28;20842;-69
2022/09/07 05:49:39;;;;;;;0.00;0.00;;;17.70;99.90;;;;;;5039355;28;20557;-70
2022/09/07 05:52:07;;;;;;;0.00;0.00;;;17.70;99.90;;;;;;5038797;28;20447;-72
2022/09/07 05:54:36;;;;;;;0.00;0.00;;;17.80;99.90;;;;;;5038893;28;20432;-71
2022/09/07 05:57:05;;;;;;;0.00;0.00;;;17.70;99.90;;;;;;5035563;28;20449;-74
2022/09/07 05:59:34;;;;;;;0.00;0.00;;;17.70;99.90;;;;;;5024903;28;20537;-69
2022/09/07 06:02:01;;;;;;;0.00;0.00;;;17.80;99.90;;;;;;5024399;28;20447;-69
2022/09/07 06:04:31;;;;;;;0.00;0.00;;;17.80;99.90;;;;;;5036906;28;20593;-69
2022/09/07 06:06:59;;;;;;;0.00;0.00;;;17.80;99.90;;;;;;5038364;28;20451;-69
2022/09/07 06:09:47;;;;;;;0.00;0.00;;;17.80;99.90;;;;;;5038012;28;20464;-69
2022/09/07 06:12:35;;;;;;;0.00;0.00;;;17.80;99.90;;;;;;5037347;28;20848;-67
2022/09/07 06:15:04;;;;;;;0.00;0.00;;;17.80;99.90;;;;;;5023521;28;20469;-69
2022/09/07 06:17:32;;;;;;;0.00;0.00;;;17.80;99.90;;;;;;5028383;28;20446;-70
2022/09/07 06:20:01;;;;;;;0.00;0.00;;;17.80;99.90;;;;;;5034766;28;20493;-69
2022/09/07 06:22:30;;;;;;;0.00;0.00;;;17.80;99.90;;;;;;5026611;28;20876;-69
2022/09/07 06:24:58;;;;;;;0.00;0.00;;;17.80;99.90;;;;;;5029962;28;20763;-69
2022/09/07 06:27:26;;;;;;;0.00;0.00;;;17.80;99.90;;;;;;5035048;28;20457;-70
2022/09/07 06:29:54;;;;;;;0.00;0.00;;;17.80;99.90;;;;;;5032914;28;20461;-69
2022/09/07 06:32:22;;;;;;;0.00;0.00;;;17.80;99.90;;;;;;5037757;28;20523;-69
2022/09/07 06:35:12;;;;;;;0.00;0.00;;;17.90;99.90;;;;;;5037669;28;20457;-76
2022/09/07 06:37:40;;;;;;;0.00;0.00;;;17.80;99.90;;;;;;5038608;28;20464;-68
2022/09/07 06:40:10;;;;;;;0.00;0.00;;;17.80;99.90;;;;;;5029860;28;20779;-68
2022/09/07 06:42:38;;;;;;;0.00;0.00;;;17.70;99.90;;;;;;5025525;28;20765;-68
2022/09/07 06:45:08;;;;;;;0.00;0.00;;;17.80;99.90;;;;;;5033554;28;20524;-77
2022/09/07 06:47:36;;;;;;;0.00;0.00;;;17.70;99.90;;;;;;5031333;28;20450;-77
2022/09/07 06:50:04;;;;;;;0.00;0.00;;;17.70;99.90;;;;;;5025090;28;20918;-78
2022/09/07 06:52:36;;;;;;;0.00;0.00;;;17.80;99.90;;;;;;5025114;28;20529;-77
2022/09/07 06:55:24;;;;;;;0.00;0.00;;;17.80;99.90;;;;;;5022279;28;21129;-77
2022/09/07 06:57:52;;;;;;;0.00;0.00;;;17.70;99.90;;;;;;5038903;28;20462;-77
2022/09/07 07:00:20;;;;;;;0.00;0.00;;;17.70;99.90;;;;;;5036622;28;20457;-78
2022/09/07 07:02:48;;;;;;;0.00;0.00;;;17.60;99.90;;;;;;5038057;28;20726;-77
2022/09/07 07:05:16;;;;;;;0.00;0.00;;;17.70;99.90;;;;;;5038218;28;20488;-77
2022/09/07 07:07:45;;;;;;;0.00;0.00;;;17.70;99.90;;;;;;5038375;28;20977;-77
2022/09/07 07:10:13;;;;;;;0.00;0.00;;;17.60;99.90;;;;;;5039945;28;20486;-77
2022/09/07 07:12:41;;;;;;;0.00;0.00;;;17.60;99.90;;;;;;5043343;28;20437;-77
2022/09/07 07:15:09;;;;;;;0.00;0.00;;;17.50;99.90;;;;;;5043273;28;20444;-75
2022/09/07 07:17:36;;;;;;;0.00;0.00;;;17.40;99.90;;;;;;5025338;28;20471;-76
2022/09/07 07:20:05;;;;;;;0.00;0.00;;;17.40;99.90;;;;;;5022800;28;20559;-76
2022/09/07 07:22:34;;;;;;;0.00;0.00;;;17.40;99.90;;;;;;5022774;28;20457;-76
2022/09/07 07:25:19;;;;;;;0.00;0.00;;;17.30;99.90;;;;;;5022237;28;20706;-76
2022/09/07 07:27:47;;;;;;;0.00;0.00;;;17.30;99.90;;;;;;5022967;28;20980;-76
2022/09/07 07:30:17;;;;;;;0.00;0.00;;;17.20;99.90;;;;;;5022267;28;20466;-76
2022/09/07 07:32:45;;;;;;;0.00;0.00;;;17.20;99.90;;;;;;5021928;28;20463;-77
2022/09/07 07:35:13;;;;;;;0.00;0.00;;;17.10;99.90;;;;;;5022725;28;20464;-76
2022/09/07 07:37:41;;;;;;;0.00;0.00;;;17.10;99.90;;;;;;5022649;28;20512;-76
2022/09/07 07:40:12;;;;;;;0.00;0.00;;;17.10;99.90;;;;;;5022323;28;20461;-75
2022/09/07 07:42:46;;;;;;;0.00;0.00;;;17.10;99.90;;;;;;5022012;28;20444;-75
2022/09/07 07:45:14;;;;;;;0.00;0.00;;;17.00;99.90;;;;;;5004904;28;20568;-78
2022/09/07 07:48:02;;;;;;;0.00;0.00;;;17.00;99.90;;;;;;5022169;28;20472;-77
2022/09/07 07:50:30;;;;;;;0.00;0.00;;;16.90;99.90;;;;;;5021632;28;21159;-76
2022/09/07 07:52:59;;;;;;;0.00;0.00;;;16.90;99.90;;;;;;5022195;28;21019;-77
2022/09/07 07:55:47;;;;;;;0.00;0.00;;;16.80;99.90;;;;;;5025304;28;20457;-76
2022/09/07 07:58:17;;;;;;;0.00;0.00;;;16.70;99.90;;;;;;5025353;28;20528;-75
2022/09/07 08:00:45;;;;;;;0.00;0.00;;;16.70;99.90;;;;;;5021877;28;20472;-78
2022/09/07 08:03:22;;;;;;;0.00;0.00;;;16.60;99.90;;;;;;5022138;28;20456;-75
2022/09/07 08:05:51;;;;;;;0.00;0.00;;;16.60;99.90;;;;;;5021899;28;20480;-76
2022/09/07 08:08:19;;;;;;;0.00;0.00;;;16.50;99.90;;;;;;5022404;28;20471;-77
2022/09/07 08:10:47;;;;;;;0.00;0.00;;;16.50;99.90;;;;;;5029272;28;20456;-77
2022/09/07 08:13:17;;;;;;;0.00;0.00;;;16.50;99.90;;;;;;5041267;28;20467;-77
2022/09/07 08:15:50;;;;;;;0.00;0.00;;;16.40;99.90;;;;;;5021978;28;20444;-77
2022/09/07 08:18:18;;;;;;;0.00;0.00;;;16.40;99.90;;;;;;5021478;28;20437;-77
2022/09/07 08:20:46;;;;;;;0.00;0.00;;;16.40;99.90;;;;;;5025069;28;20469;-76
2022/09/07 08:23:15;;;;;;;0.00;0.00;;;16.40;99.90;;;;;;5035647;28;20448;-76
2022/09/07 08:25:53;;;;;;;0.00;0.00;;;16.40;99.90;;;;;;5021311;28;21053;-76
2022/09/07 08:28:23;;;;;;;0.00;0.00;;;16.30;99.90;;;;;;5022432;28;20472;-78
2022/09/07 08:30:51;;;;;;;0.00;0.00;;;16.30;99.90;;;;;;5021676;28;20537;-76
2022/09/07 08:33:19;;;;;;;0.00;0.00;;;16.30;99.90;;;;;;5020790;28;20445;-75
2022/09/07 08:35:58;;;;;;;0.00;0.00;;;16.30;99.90;;;;;;5021399;28;20468;-75
2022/09/07 08:38:26;;;;;;;0.00;0.00;;;16.30;99.90;;;;;;5021839;28;20441;-76
2022/09/07 08:40:54;;;;;;;0.00;0.00;;;16.40;99.90;;;;;;5021188;28;20437;-76
2022/09/07 08:43:33;;;;;;;0.00;0.00;;;16.40;99.90;;;;;;5020647;28;20475;-75
2022/09/07 08:46:11;;;;;;;0.00;0.00;;;16.40;99.90;;;;;;5023869;28;20548;-76
2022/09/07 08:48:39;;;;;;;0.00;0.00;;;16.40;99.90;;;;;;5021681;28;20425;-75
2022/09/07 08:51:12;;;;;;;0.00;0.00;;;16.50;99.90;;;;;;5035535;28;20440;-76
2022/09/07 08:53:45;;;;;;;0.00;0.00;;;16.50;99.90;;;;;;5039972;28;20927;-75
2022/09/07 08:56:22;;;;;;;0.00;0.00;;;16.50;99.90;;;;;;5030140;28;20472;-74
2022/09/07 08:58:53;;;;;;;0.00;0.00;;;16.50;99.90;;;;;;5032528;28;20577;-76
2022/09/07 09:01:27;;;;;;;0.00;0.00;;;16.50;99.90;;;;;;5021872;28;20475;-75
2022/09/07 09:04:00;;;;;;;0.00;0.00;;;16.60;99.90;;;;;;5028209;28;20528;-75
2022/09/07 09:07:03;;;;;;;0.00;0.00;;;16.60;99.90;;;;;;5027446;28;20430;-76
2022/09/07 09:09:44;;;;;;;0.00;0.00;;;16.70;99.90;;;;;;5041363;28;20483;-76
2022/09/07 09:12:24;;;;;;;0.00;0.00;;;16.80;99.90;;;;;;5041678;28;20508;-76
2022/09/07 09:15:08;;;;;;;0.00;0.00;;;16.80;99.90;;;;;;5040236;28;20521;-76
2022/09/07 09:17:43;;;;;;;0.00;0.00;;;16.90;99.90;;;;;;5040523;28;20445;-76
2022/09/07 09:20:22;;;;;;;0.00;0.00;;;17.00;99.90;;;;;;5031987;28;20469;-76
2022/09/07 09:22:51;;;;;;;0.00;0.00;;;17.00;99.90;;;;;;5020418;28;20463;-69
2022/09/07 09:25:21;;;;;;;0.00;0.00;;;17.00;99.90;;;;;;5037014;28;20474;-68
2022/09/07 09:27:50;;;;;;;0.00;0.00;;;16.90;99.90;;;;;;5039070;28;20556;-68
2022/09/07 09:30:20;;;;;;;0.00;0.00;;;17.00;99.90;;;;;;5037682;28;20466;-71
2022/09/07 09:32:52;;;;;;;0.00;0.00;;;17.10;99.90;;;;;;5034264;28;20461;-67
2022/09/07 09:35:28;;;;;;;0.00;0.00;;;17.30;99.90;;;;;;5037148;28;21112;-67
2022/09/07 09:37:57;;;;;;;0.00;0.00;;;17.50;99.90;;;;;;5035028;28;20453;-68
2022/09/07 09:40:27;;;;;;;0.00;0.00;;;17.70;99.90;;;;;;5031996;28;20475;-68
2022/09/07 09:43:06;;;;;;;0.00;0.00;;;17.80;99.90;;;;;;5038476;28;20449;-68
2022/09/07 09:45:42;;;;;;;0.00;0.00;;;17.90;99.90;;;;;;5038580;28;20485;-67
2022/09/07 09:48:33;;;;;;;0.00;0.00;;;18.10;99.90;;;;;;5037871;28;20736;-68
2022/09/07 09:51:03;;;;;;;0.00;0.00;;;18.30;99.90;;;;;;5039419;28;20631;-68
2022/09/07 09:53:57;;;;;;;0.00;0.00;;;18.40;99.90;;;;;;5038534;28;20510;-67
2022/09/07 09:56:42;;;;;;;0.00;0.00;;;18.60;99.90;;;;;;5032446;28;21133;-68
2022/09/07 09:59:21;;;;;;;0.00;0.00;;;18.80;99.90;;;;;;5029755;28;20487;-68
2022/09/07 10:02:29;;;;;;;0.00;0.00;;;18.90;99.90;;;;;;5038756;28;20482;-68
2022/09/07 10:05:26;;;;;;;0.00;0.00;;;19.10;99.90;;;;;;5018914;28;21052;-67
2022/09/07 10:07:55;;;;;;;0.00;0.00;;;19.10;99.90;;;;;;5019314;28;20447;-71
2022/09/07 10:10:23;;;;;;;0.00;0.00;;;19.20;99.90;;;;;;5037976;28;21017;-67
2022/09/07 10:12:53;;;;;;;0.00;0.00;;;19.20;99.90;;;;;;5038203;28;20462;-67
2022/09/07 10:15:30;;;;;;;0.00;0.00;;;19.20;99.90;;;;;;5038867;28;21015;-68
2022/09/07 10:18:04;;;;;;;0.00;0.00;;;19.30;99.90;;;;;;5037892;28;20455;-68
2022/09/07 10:20:35;;;;;;;0.00;0.00;;;19.40;99.90;;;;;;5035874;28;20591;-67
2022/09/07 10:23:05;;;;;;;0.00;0.00;;;19.40;99.90;;;;;;5037998;28;21178;-67
2022/09/07 10:25:35;;;;;;;0.00;0.00;;;19.40;99.90;;;;;;5036428;28;20494;-67
2022/09/07 10:28:17;;;;;;;0.00;0.00;;;19.50;99.90;;;;;;5036448;28;20448;-65
2022/09/07 10:30:57;;;;;;;0.00;0.00;;;19.50;99.90;;;;;;5038458;28;20498;-66
2022/09/07 10:33:39;;;;;;;0.00;0.00;;;19.50;99.90;;;;;;5034635;28;21114;-66
2022/09/07 10:36:15;;;;;;;0.00;0.00;;;19.50;99.90;;;;;;5035243;28;20452;-73
2022/09/07 10:38:52;;;;;;;0.00;0.00;;;19.60;99.90;;;;;;5035557;28;20475;-70
2022/09/07 10:41:29;;;;;;;0.00;0.00;;;19.70;99.90;;;;;;5035702;28;20447;-70
2022/09/07 10:43:57;;;;;;;0.00;0.00;;;19.70;99.90;;;;;;5030211;28;20454;-70
2022/09/07 10:46:48;;;;;;;0.00;0.00;;;19.80;99.90;;;;;;5036278;28;20480;-71
2022/09/07 10:49:32;;;;;;;0.00;0.00;;;19.90;99.90;;;;;;5036702;28;20464;-70
2022/09/07 10:52:14;;;;;;;0.00;0.00;;;19.90;99.90;;;;;;5037333;28;20943;-71
2022/09/07 10:54:50;;;;;;;0.00;0.00;;;20.00;99.90;;;;;;5035911;28;20464;-69
2022/09/07 10:57:34;;;;;;;0.00;0.00;;;20.20;99.90;;;;;;5037508;28;20443;-69
2022/09/07 11:00:09;;;;;;;0.00;0.00;;;20.30;99.90;;;;;;5034206;28;20658;-69
2022/09/07 11:02:48;;;;;;;0.00;0.00;;;20.50;99.90;;;;;;5037941;28;21135;-69
2022/09/07 11:05:49;;;;;;;0.00;0.00;;;20.60;99.90;;;;;;5038125;28;20500;-69
2022/09/07 11:08:33;;;;;;;0.00;0.00;;;20.80;99.90;;;;;;5038336;28;20432;-70
2022/09/07 11:11:25;;;;;;;0.00;0.00;;;20.90;99.90;;;;;;5037977;28;20460;-69
2022/09/07 11:14:17;;;;;;;0.00;0.00;;;20.90;99.90;;;;;;5037894;28;20468;-69
2022/09/07 11:16:59;;;;;;;0.00;0.00;;;21.00;99.90;;;;;;5018769;28;20449;-69
2022/09/07 11:19:30;;;;;;;0.00;0.00;;;21.00;99.90;;;;;;5018586;28;20469;-71
2022/09/07 11:22:15;;;;;;;0.00;0.00;;;21.10;99.90;;;;;;5018436;28;20452;-69
2022/09/07 11:24:49;;;;;;;0.00;0.00;;;21.20;99.90;;;;;;5029346;28;20440;-69
2022/09/07 11:27:42;;;;;;;0.00;0.00;;;21.30;99.90;;;;;;5030424;28;20495;-69
2022/09/07 11:30:18;;;;;;;0.00;0.00;;;21.40;99.90;;;;;;5037482;28;20460;-69
2022/09/07 11:32:53;;;;;;;0.00;0.00;;;21.40;99.90;;;;;;5037940;28;20454;-69
2022/09/07 11:35:31;;;;;;;0.00;0.00;;;21.50;99.90;;;;;;5038376;28;20434;-69
2022/09/07 11:38:05;;;;;;;0.00;0.00;;;21.60;99.90;;;;;;5038734;28;20452;-69
2022/09/07 11:40:38;;;;;;;0.00;0.00;;;21.60;99.90;;;;;;5037885;28;21049;-70
2022/09/07 11:43:16;;;;;;;0.00;0.00;;;21.70;99.90;;;;;;5038404;28;20433;-70
2022/09/07 11:45:50;;;;;;;0.00;0.00;;;21.80;99.90;;;;;;5037733;28;21165;-69
2022/09/07 11:48:24;;;;;;;0.00;0.00;;;21.80;99.90;;;;;;5037990;28;20461;-69
2022/09/07 11:51:01;;;;;;;0.00;0.00;;;22.00;99.90;;;;;;5038011;28;20444;-70
2022/09/07 11:53:34;;;;;;;0.00;0.00;;;22.10;99.90;;;;;;5036752;28;20529;-70
2022/09/07 11:56:09;;;;;;;0.00;0.00;;;22.20;99.90;;;;;;5028646;28;21130;-70
2022/09/07 11:59:03;;;;;;;0.00;0.00;;;22.30;99.90;;;;;;5040891;28;20448;-69
2022/09/07 12:01:39;;;;;;;0.00;0.00;;;22.40;99.90;;;;;;5036030;28;20460;-70
2022/09/07 12:04:30;;;;;;;0.00;0.00;;;22.40;99.90;;;;;;5029071;28;20678;-69
2022/09/07 12:07:24;;;;;;;0.00;0.00;;;22.50;99.90;;;;;;5024108;28;21192;-69
2022/09/07 12:10:16;;;;;;;0.00;0.00;;;22.60;99.90;;;;;;5034509;28;21042;-69
2022/09/07 12:13:13;;;;;;;0.00;0.00;;;22.70;99.90;;;;;;5040866;28;20453;-69
2022/09/07 12:15:50;;;;;;;0.00;0.00;;;22.80;99.90;;;;;;5041161;28;20542;-68
2022/09/07 12:18:30;;;;;;;0.00;0.00;;;22.90;99.90;;;;;;5034654;28;20481;-69
2022/09/07 12:20:59;;;;;;;0.00;0.00;;;23.00;99.90;;;;;;5033947;28;20445;-69
2022/09/07 12:23:29;;;;;;;0.00;0.00;;;23.10;99.90;;;;;;5032796;28;20462;-69
2022/09/07 12:26:34;;;;;;;0.00;0.00;;;23.10;99.90;;;;;;5024240;28;20482;-70
2022/09/07 12:29:22;;;;;;;0.00;0.00;;;23.10;99.90;;;;;;5020883;28;21154;-71
2022/09/07 12:31:52;;;;;;;0.00;0.00;;;23.10;99.90;;;;;;5026217;28;20517;-69
2022/09/07 12:34:56;;;;;;;0.00;0.00;;;23.20;99.90;;;;;;5031149;28;20471;-69
2022/09/07 12:37:45;;;;;;;0.00;0.00;;;23.30;99.90;;;;;;5021324;28;20448;-69
2022/09/07 12:40:46;;;;;;;0.00;0.00;;;23.30;99.90;;;;;;5014105;28;20531;-70
2022/09/07 12:43:58;;;;;;;0.00;0.00;;;23.30;99.90;;;;;;5021277;28;20935;-74
2022/09/07 12:46:51;;;;;;;0.00;0.00;;;23.30;99.90;;;;;;5038129;28;20707;-66
2022/09/07 12:49:54;;;;;;;0.00;0.00;;;23.30;99.90;;;;;;5019037;28;20496;-69
2022/09/07 12:52:53;;;;;;;0.00;0.00;;;23.30;99.90;;;;;;5038853;28;21099;-69
2022/09/07 12:55:35;;;;;;;0.00;0.00;;;23.30;99.90;;;;;;5040507;28;20443;-69
2022/09/07 12:58:38;;;;;;;0.00;0.00;;;23.30;99.90;;;;;;5040543;28;20488;-69
2022/09/07 13:01:16;;;;;;;0.00;0.00;;;23.30;99.90;;;;;;5040247;28;20511;-69
2022/09/07 13:04:18;;;;;;;0.00;0.00;;;23.30;99.90;;;;;;5040152;28;20435;-68
2022/09/07 13:07:07;;;;;;;0.00;0.00;;;23.30;99.90;;;;;;5020023;28;20486;-70
2022/09/07 13:09:36;;;;;;;0.00;0.00;;;23.40;99.90;;;;;;5039636;28;20471;-70
2022/09/07 13:12:23;;;;;;;0.00;0.00;;;23.50;99.90;;;;;;5039329;28;20447;-70
2022/09/07 13:15:33;;;;;;;0.00;0.00;;;23.50;99.90;;;;;;5039507;28;20492;-69
2022/09/07 13:18:02;;;;;;;0.00;0.00;;;23.60;99.90;;;;;;5039366;28;20455;-69
2022/09/07 13:20:32;;;;;;;0.00;0.00;;;23.60;99.90;;;;;;5025904;28;21173;-71
2022/09/07 13:23:20;;;;;;;0.00;0.00;;;23.70;99.90;;;;;;5039613;28;20454;-71
2022/09/07 13:25:54;;;;;;;0.00;0.00;;;23.70;99.90;;;;;;5039465;28;20454;-70
2022/09/07 13:28:28;;;;;;;0.00;0.00;;;23.70;99.90;;;;;;5039701;28;20468;-68
2022/09/07 13:31:09;;;;;;;0.00;0.00;;;23.70;99.90;;;;;;5025310;28;21041;-69